Accueil
METAR-TAF:

METAR-TAF

Aéroports :

Aéroport de Strasbourg-Entzheim

Strasbourg, France

latitude: 48-33N, longitude: 007-38E, altitude: 153 m

Observation

Le bulletin a été fait il y a 24 minutes, à 05:00 UTC
Vent 6 kt de nord/nord-ouest
Température 10°C
Humidité 82%
Pression 1031 hPa
Visibilité 10 km ou plus
Quelques nuages à une hauteur de 5200 ft

METAR: LFST 240500Z AUTO 34006KT 9999 FEW052 10/07 Q1031 NOSIG

Heure: 07:24 (05:24 UTC)

Prévision

Le bulletin a été fait il y a 6 heures et 24 minutes, à 23:00 UTC
Prévision valable du 24 à 00 UTC au 24 à 24 UTC
Vent 7 kt de nord-ouest
Visibilité 10 km ou plus
Nuages épars à une hauteur de 2000 ft
Nuages fragmentés à une hauteur de 4000 ft

TAF: LFST 232300Z 2400/2424 31007KT 9999 SCT020 BKN040

Observations et prévisions météorologiques de plus de 4000 aéroports (messages METAR et TAF).

Les stations disponibles sont représentées par des disques jaunes et rouges sur la carte.

Passer la souris dessus pour voir le nom de la station.

Cliquer dessus pour voir les observations et prévisions météorologiques.

Pour changer de carte: cliquez sur les boutons verts avec une croix noire pour zoomer, sur le bouton vert avec un tiret pour effectuer un zoom arrière, ou sur les flèches vertes pour les cartes adjacentes.


METAR-TAF: